Latest Weather Observations for Perisher Valley

IDN60801

Issued at 8:32 am EDT Wednesday 1 April 2015 (issued every 30 minutes, with the page automatically refreshed every 10 minutes)

About weather observations | Map of weather stations | Latest weather observations for NSW | Other Formats
Station Details ID: 071075 Name: PERISHER VALLEY AWS Lat: -36.41 Lon: 148.41 Height: 1738.0 m
Data from the previous 72 hours. | See also: Recent months at Perisher Valley
Date/Time
EDT
Temp
°C
App
Temp
°C
Dew
Point
Rel
Hum
%
Delta-T
°C
Wind Press
QNH
hPa
Press
MSL
hPa
Rain
since 9 am
mm
Dir
 
Spd
km/h
Gust
km/h
Spd
kts
Gust
kts
01/08:30am 7.8 6.3 5.1 83 1.3 NE 2 4 1 2 - - 0.0
01/08:00am 4.3 2.7 2.5 88 0.8 CALM 0 2 0 1 - - 0.0
01/07:30am 2.8 0.6 1.2 89 0.7 SW 2 2 1 1 - - 0.0
01/07:00am 3.8 2.2 2.3 90 0.7 CALM 0 2 0 1 - - 0.0
01/06:30am 4.2 2.3 2.7 90 0.7 WSW 2 13 1 7 - - 0.0
01/06:00am 3.1 1.3 1.5 89 0.7 CALM 0 2 0 1 - - 0.0
01/05:30am 3.0 0.5 1.4 89 0.7 SW 4 6 2 3 - - 0.0
01/05:00am 3.0 0.8 0.9 86 0.9 WSW 2 4 1 2 - - 0.0
01/04:30am 3.2 1.0 0.8 84 1.0 SW 2 6 1 3 - - 0.0
01/04:00am 3.5 1.7 1.2 85 1.0 CALM 0 4 0 2 - - 0.0
01/03:30am 3.9 1.4 1.3 83 1.1 SW 4 6 2 3 - - 0.0
01/03:00am 5.7 4.1 2.5 80 1.5 CALM 0 4 0 2 - - 0.0
01/02:30am 6.4 4.4 2.1 74 2.0 S 2 4 1 2 - - 0.0
01/02:00am 8.0 5.1 2.5 68 2.6 NW 7 19 4 10 - - 0.0
01/01:30am 9.1 6.4 3.5 68 2.7 WNW 7 19 4 10 - - 0.0
01/01:00am 9.8 6.8 4.0 67 2.8 W 9 20 5 11 - - 0.0
01/12:30am 7.7 5.3 4.1 78 1.7 W 6 13 3 7 - - 0.0
01/12:00am 4.2 2.1 1.4 82 1.2 SW 2 4 1 2 - - 0.0
 
Date/Time
EDT
Temp
°C
App
Temp
°C
Dew
Point
Rel
Hum
%
Delta-T
°C
Wind Press
QNH
hPa
Press
MSL
hPa
Rain
since 9 am
mm
Dir
 
Spd
km/h
Gust
km/h
Spd
kts
Gust
kts
31/11:30pm 4.4 2.4 2.1 85 1.0 NNE 2 6 1 3 - - 0.0
31/11:00pm 3.7 1.9 1.4 85 1.0 CALM 0 0 0 0 - - 0.0
31/10:30pm 3.5 1.6 0.7 82 1.2 CALM 0 2 0 1 - - 0.0
31/10:00pm 4.2 2.4 1.1 80 1.4 CALM 0 4 0 2 - - 0.0
31/09:30pm 4.3 2.1 0.8 78 1.5 SW 2 4 1 2 - - 0.0
31/09:00pm 5.0 2.8 0.9 75 1.8 WSW 2 6 1 3 - - 0.0
31/08:30pm 5.7 3.4 0.7 70 2.2 SW 2 6 1 3 - - 0.0
31/08:00pm 6.0 3.3 0.3 67 2.5 WSW 4 6 2 3 - - 0.0
31/07:30pm 6.6 4.0 0.7 66 2.6 SW 4 7 2 4 - - 0.0
31/07:00pm 8.9 6.7 0.9 57 3.6 SW 2 7 1 4 - - 0.0
31/06:30pm 12.0 8.8 0.5 45 5.3 E 7 11 4 6 - - 0.0
31/06:00pm 14.2 11.0 0.5 39 6.4 E 7 13 4 7 - - 0.0
31/05:30pm 14.9 11.2 0.0 36 7.0 ESE 9 15 5 8 - - 0.0
31/05:00pm 15.8 11.8 0.4 35 7.3 ENE 11 17 6 9 - - 0.0
31/04:30pm 15.7 11.3 0.3 35 7.3 E 13 20 7 11 - - 0.0
31/04:00pm 15.7 11.7 0.3 35 7.3 ESE 11 19 6 10 - - 0.0
31/03:30pm 16.7 13.2 1.2 35 7.5 E 9 20 5 11 - - 0.0
31/03:00pm 16.2 13.0 0.7 35 7.4 E 7 17 4 9 - - 0.0
31/02:30pm 15.7 12.1 0.3 35 7.3 ENE 9 17 5 9 - - 0.0
31/02:00pm 16.1 12.6 1.4 37 7.1 E 9 20 5 11 - - 0.0
31/01:30pm 16.4 12.5 0.9 35 7.5 ESE 11 19 6 10 - - 0.0
31/01:00pm 16.4 12.8 0.5 34 7.6 ESE 9 17 5 9 - - 0.0
31/12:30pm 15.3 11.0 -1.7 31 7.7 ESE 11 20 6 11 - - 0.0
31/12:00pm 16.2 12.8 -1.8 29 8.2 N 6 15 3 8 - - 0.0
31/11:30am 14.6 11.0 -2.3 31 7.5 NE 7 17 4 9 - - 0.0
31/11:00am 14.5 11.0 -1.6 33 7.2 ENE 7 17 4 9 - - 0.0
31/10:30am 13.9 10.0 -1.3 35 6.9 ENE 9 15 5 8 - - 0.0
31/10:00am 13.1 10.0 0.2 41 6.0 ENE 6 13 3 7 - - 0.0
31/09:30am 11.8 9.4 2.3 52 4.5 E 4 6 2 3 - - 0.0
31/09:00am 7.4 6.2 4.7 83 1.3 CALM 0 2 0 1 - - 0.0
31/08:30am 3.4 1.7 1.8 89 0.7 CALM 0 2 0 1 - - 0.0
31/08:00am 0.9 -1.2 -0.9 88 0.7 CALM 0 4 0 2 - - 0.0
31/07:30am 0.0 -3.0 -1.6 89 0.6 SW 4 7 2 4 - - 0.0
31/07:00am 0.2 -2.3 -0.9 92 0.4 SW 2 4 1 2 - - 0.0
31/06:30am -0.1 -2.2 -1.1 93 0.4 CALM 0 2 0 1 - - 0.0
31/06:00am 0.1 -2.0 -0.9 93 0.4 CALM 0 2 0 1 - - 0.0
31/05:30am 0.1 -2.4 -1.0 92 0.4 SW 2 4 1 2 - - 0.0
31/05:00am 0.5 -1.5 -0.4 94 0.4 CALM 0 0 0 0 - - 0.0
31/04:30am 0.3 -1.8 -0.8 92 0.5 CALM 0 2 0 1 - - 0.0
31/04:00am 0.6 -1.8 -0.4 93 0.4 WSW 2 7 1 4 - - 0.0
31/03:30am 0.6 -1.4 -0.4 93 0.4 CALM 0 0 0 0 - - 0.0
31/03:00am 1.2 -1.1 0.3 94 0.4 WSW 2 6 1 3 - - 0.0
31/02:30am 0.8 -1.2 0.1 95 0.3 CALM 0 0 0 0 - - 0.0
31/02:00am 0.5 -1.9 -0.4 94 0.4 WSW 2 4 1 2 - - 0.0
31/01:30am 0.8 -1.2 0.1 95 0.3 CALM 0 2 0 1 - - 0.0
31/01:00am 1.1 -0.8 0.4 95 0.3 CALM 0 4 0 2 - - 0.0
31/12:30am 1.1 -0.9 0.1 93 0.4 CALM 0 2 0 1 - - 0.0
31/12:00am 1.0 -1.4 0.0 93 0.4 SW 2 6 1 3 - - 0.0
 
Date/Time
EDT
Temp
°C
App
Temp
°C
Dew
Point
Rel
Hum
%
Delta-T
°C
Wind Press
QNH
hPa
Press
MSL
hPa
Rain
since 9 am
mm
Dir
 
Spd
km/h
Gust
km/h
Spd
kts
Gust
kts
30/11:30pm 1.8 -0.5 0.6 92 0.5 SW 2 4 1 2 - - 0.0
30/11:00pm 2.1 0.2 0.5 89 0.7 CALM 0 2 0 1 - - 0.0
30/10:30pm 3.3 0.8 1.3 87 0.9 SW 4 6 2 3 - - 0.0
30/10:00pm 5.4 2.8 3.1 85 1.1 W 6 9 3 5 - - 0.0
30/09:30pm 6.6 4.1 3.9 83 1.3 SW 6 9 3 5 - - 0.0
30/09:00pm 7.7 5.2 4.7 81 1.5 SW 7 15 4 8 - - 0.0
30/08:30pm 5.5 3.0 1.4 75 1.8 WSW 4 6 2 3 - - 0.0
30/08:00pm 5.4 2.9 1.7 77 1.7 SW 4 7 2 4 - - 0.0
30/07:30pm 6.6 4.2 1.9 72 2.1 SW 4 6 2 3 - - 0.0
30/07:00pm 8.1 6.1 2.4 67 2.7 W 2 2 1 1 - - 0.0
30/06:30pm 11.3 8.9 2.1 53 4.4 S 4 9 2 5 - - 0.0
30/06:00pm 13.7 10.9 2.3 46 5.5 SSW 6 9 3 5 - - 0.0
30/05:30pm 13.6 10.9 2.5 47 5.4 SSE 6 13 3 7 - - 0.0
30/05:00pm 13.5 10.2 2.7 48 5.3 SE 9 15 5 8 - - 0.0
30/04:30pm 13.3 10.6 2.8 49 5.1 SE 6 11 3 6 - - 0.0
30/04:00pm 14.1 10.3 2.0 44 5.9 SE 11 20 6 11 - - 0.0
30/03:30pm 15.3 11.7 0.3 36 7.1 SSW 9 17 5 9 - - 0.0
30/03:00pm 15.1 12.1 0.5 37 6.9 SSW 6 15 3 8 - - 0.0
30/02:30pm 14.1 10.7 -0.4 37 6.7 W 7 13 4 7 - - 0.0
30/02:00pm 13.8 10.6 -0.6 37 6.6 WNW 6 15 3 8 - - 0.0
30/01:30pm 13.5 10.2 2.4 47 5.4 WNW 9 20 5 11 - - 0.0
30/01:00pm 12.0 8.4 0.8 46 5.2 W 9 19 5 10 - - 0.0
30/12:30pm 11.6 7.3 0.7 47 5.0 W 13 22 7 12 - - 0.0
30/12:00pm 11.9 7.9 0.4 45 5.3 WNW 11 19 6 10 - - 0.0
30/11:30am 11.1 8.0 1.4 51 4.5 WNW 7 20 4 11 - - 0.0
30/11:00am 9.5 5.3 1.4 57 3.7 W 13 24 7 13 - - 0.0
30/10:30am 10.5 7.1 1.6 54 4.2 WNW 9 20 5 11 - - 0.0
30/10:00am 9.2 6.8 2.1 61 3.3 SSW 4 11 2 6 - - 0.0
30/09:30am 7.5 5.6 0.3 60 3.2 CALM 0 6 0 3 - - 0.0
30/09:00am 2.7 0.3 -2.8 67 2.1 CALM 0 2 0 1 - - 0.0
30/08:30am 2.2 -0.1 -2.7 70 1.9 CALM 0 2 0 1 - - 0.0
30/08:00am -0.1 -2.8 -6.1 64 2.1 CALM 0 4 0 2 - - 0.0
30/07:30am -2.0 -5.6 -7.7 65 1.8 SW 4 6 2 3 - - 0.0
30/07:00am -2.0 -5.2 -7.7 65 1.8 WSW 2 6 1 3 - - 0.0
30/06:30am -1.4 -4.2 -6.9 66 1.8 CALM 0 4 0 2 - - 0.0
30/06:00am -1.1 -4.6 -5.9 70 1.6 SW 4 6 2 3 - - 0.0
30/05:30am 0.2 -2.7 -4.1 73 1.6 NNW 2 4 1 2 - - 0.0
30/05:00am 0.7 -1.7 -2.9 77 1.4 CALM 0 2 0 1 - - 0.0
30/04:30am 1.0 -1.7 -2.4 78 1.4 SW 2 4 1 2 - - 0.0
30/04:00am 2.0 -0.6 -1.4 78 1.4 SSW 2 4 1 2 - - 0.0
30/03:30am 4.4 1.4 0.6 76 1.6 WNW 6 13 3 7 - - 0.0
30/03:00am 6.1 2.3 1.8 74 1.9 WNW 11 17 6 9 - - 0.0
30/02:30am 5.8 2.4 1.9 76 1.8 WNW 9 19 5 10 - - 0.0
30/02:00am 4.1 1.8 0.6 78 1.5 NNE 2 13 1 7 - - 0.0
30/01:30am 5.8 3.3 1.3 73 2.0 WNW 4 13 2 7 - - 0.0
30/01:00am 6.8 2.6 1.5 69 2.4 W 13 22 7 12 - - 0.0
30/12:30am 6.4 2.9 1.1 69 2.4 W 9 22 5 12 - - 0.0
30/12:00am 6.9 2.6 0.8 65 2.7 W 13 24 7 13 - - 0.0
 
Date/Time
EDT
Temp
°C
App
Temp
°C
Dew
Point
Rel
Hum
%
Delta-T
°C
Wind Press
QNH
hPa
Press
MSL
hPa
Rain
since 9 am
mm
Dir
 
Spd
km/h
Gust
km/h
Spd
kts
Gust
kts
29/11:30pm 6.3 3.1 0.6 67 2.5 NNW 7 19 4 10 - - 0.0
29/11:00pm 6.9 2.9 0.6 64 2.8 WNW 11 24 6 13 - - 0.0
29/10:30pm 7.5 2.8 1.1 64 2.9 W 15 28 8 15 - - 0.0
29/10:00pm 7.8 2.3 0.8 61 3.1 W 19 28 10 15 - - 0.0
29/09:30pm 7.7 2.9 0.2 59 3.3 W 15 22 8 12 - - 0.0
29/09:00pm 5.3 1.7 0.9 73 1.9 WSW 9 17 5 9 - - 0.0
29/08:30pm 3.7 0.9 -0.7 73 1.8 W 4 9 2 5 - - 0.0
29/08:00pm 3.0 0.1 -1.2 74 1.7 SW 4 7 2 4 - - 0.0
29/07:30pm 5.0 1.8 -0.8 66 2.4 WSW 6 11 3 6 - - 0.0
29/07:00pm 6.6 4.1 -1.1 58 3.3 E 2 6 1 3 - - 0.0
29/06:30pm 9.2 5.8 -0.7 50 4.3 WNW 7 17 4 9 - - 0.0
29/06:00pm 10.8 6.6 -0.9 44 5.2 W 11 22 6 12 - - 0.0
29/05:30pm 12.3 8.9 -2.0 37 6.3 WNW 6 13 3 7 - - 0.0
29/05:00pm 12.4 9.0 -1.9 37 6.3 SW 6 17 3 9 - - 0.0
29/04:30pm 12.9 8.0 -3.4 32 7.0 W 13 24 7 13 - - 0.0
29/04:00pm 13.3 8.8 -3.0 32 7.0 WSW 11 22 6 12 - - 0.0
29/03:30pm 13.7 9.6 -3.1 31 7.3 SW 9 24 5 13 - - 0.0
29/03:00pm 13.4 8.8 -1.0 37 6.5 W 13 24 7 13 - - 0.0
29/02:30pm 13.6 9.2 -2.3 33 7.0 W 11 28 6 15 - - 0.0
29/02:00pm 14.1 9.7 -2.3 32 7.2 WNW 11 19 6 10 - - 0.0
29/01:30pm 13.8 9.8 -2.2 33 7.1 W 9 19 5 10 - - 0.0
29/01:00pm 13.9 9.8 -0.5 37 6.6 WNW 11 22 6 12 - - 0.0
29/12:30pm 13.3 9.1 -1.1 37 6.5 W 11 19 6 10 - - 0.0
29/12:00pm 13.4 9.5 -1.7 35 6.7 SW 9 20 5 11 - - 0.0
29/11:30am 13.2 9.5 -2.7 33 6.9 SW 7 20 4 11 - - 0.0
29/11:00am 12.9 9.2 -2.6 34 6.7 SW 7 19 4 10 - - 0.0
29/10:30am 12.0 7.9 -3.0 35 6.4 WSW 9 20 5 11 - - 0.0
29/10:00am 11.2 7.0 -3.7 35 6.2 SW 9 19 5 10 - - 0.0
29/09:30am 10.1 5.0 -5.4 33 6.2 W 13 30 7 16 - - 0.0
29/09:00am 8.7 2.6 -7.5 31 6.0 WSW 17 28 9 15 - - 0.0

Other Formats:

Comma delimited format used in spreadsheet applications
http://www.bom.gov.au/fwo/IDN60801/IDN60801.94915.axf

JavaScript Object Notation format (JSON) in row-major order
http://www.bom.gov.au/fwo/IDN60801/IDN60801.94915.json